createdAt,value
2017-07-03T00:00:53.778Z,999.79
2017-07-03T00:02:04.128Z,999.77
2017-07-03T00:03:14.481Z,999.83
2017-07-03T00:04:24.827Z,999.83
2017-07-03T00:05:35.166Z,999.84
2017-07-03T00:06:45.520Z,999.86
2017-07-03T00:07:55.871Z,999.84
2017-07-03T00:09:06.212Z,999.87
2017-07-03T00:10:16.567Z,999.84
2017-07-03T00:11:26.916Z,999.85
2017-07-03T00:12:37.271Z,999.84
2017-07-03T00:13:47.633Z,999.8
2017-07-03T00:14:57.985Z,999.78
2017-07-03T00:16:08.334Z,999.77
2017-07-03T00:17:18.686Z,999.77
2017-07-03T00:18:28.093Z,999.79
2017-07-03T00:19:38.129Z,999.78
2017-07-03T00:20:48.795Z,999.83
2017-07-03T00:21:58.843Z,999.84
2017-07-03T00:23:09.189Z,999.86
2017-07-03T00:24:19.225Z,999.83
2017-07-03T00:25:29.592Z,999.86
2017-07-03T00:26:39.696Z,999.91
2017-07-03T00:27:50.096Z,999.93
2017-07-03T00:28:59.828Z,999.97
2017-07-03T00:30:10.194Z,999.96
2017-07-03T00:31:20.541Z,999.97
2017-07-03T00:32:30.944Z,999.95
2017-07-03T00:33:41.295Z,999.97
2017-07-03T00:34:51.653Z,999.97
2017-07-03T00:36:01.704Z,999.98
2017-07-03T00:37:12.062Z,999.96
2017-07-03T00:38:22.463Z,999.97
2017-07-03T00:39:32.809Z,999.95
2017-07-03T00:40:43.155Z,999.97
2017-07-03T00:41:53.504Z,999.95
2017-07-03T00:43:03.859Z,999.95
2017-07-03T00:44:14.205Z,999.95
2017-07-03T00:45:24.554Z,999.94
2017-07-03T00:46:34.885Z,999.99
2017-07-03T00:47:44.593Z,999.93
2017-07-03T00:48:54.954Z,999.97
2017-07-03T00:50:04.692Z,1000.02
2017-07-03T00:51:15.053Z,999.95
2017-07-03T00:52:25.406Z,999.98
2017-07-03T00:53:35.455Z,1000
2017-07-03T00:54:45.821Z,999.97
2017-07-03T00:55:56.211Z,999.93
2017-07-03T00:57:06.246Z,999.93
2017-07-03T00:58:16.598Z,999.98
2017-07-03T00:59:26.630Z,999.93
2017-07-03T01:00:36.974Z,999.93
2017-07-03T01:01:47.383Z,999.94
2017-07-03T01:02:57.410Z,999.96
2017-07-03T01:04:07.762Z,999.87
2017-07-03T01:05:18.119Z,999.93
2017-07-03T01:06:28.473Z,999.96
2017-07-03T01:07:38.710Z,999.93
2017-07-03T01:08:49.059Z,999.98
2017-07-03T01:09:59.443Z,999.91
2017-07-03T01:11:09.168Z,999.96
2017-07-03T01:12:19.529Z,999.93
2017-07-03T01:13:29.881Z,999.9
2017-07-03T01:14:40.248Z,999.91
2017-07-03T01:15:50.608Z,999.95
2017-07-03T01:17:00.632Z,999.96
2017-07-03T01:18:10.673Z,999.99
2017-07-03T01:19:21.070Z,999.94
2017-07-03T01:20:31.435Z,999.91
2017-07-03T01:21:41.793Z,999.99
2017-07-03T01:22:52.138Z,1000
2017-07-03T01:24:02.486Z,999.97
2017-07-03T01:25:12.892Z,1000.02
2017-07-03T01:26:22.920Z,1000.02
2017-07-03T01:27:33.265Z,1000
2017-07-03T01:28:43.619Z,999.99
2017-07-03T01:29:53.980Z,1000.01
2017-07-03T01:31:04.058Z,1000.02
2017-07-03T01:32:14.087Z,999.99
2017-07-03T01:33:23.836Z,1000.02
2017-07-03T01:34:33.868Z,1000.05
2017-07-03T01:35:43.915Z,1000.01
2017-07-03T01:36:54.317Z,1000.01
2017-07-03T01:38:04.650Z,1000.05
2017-07-03T01:39:14.994Z,1000.03
2017-07-03T01:40:25.337Z,1000.04
2017-07-03T01:41:35.688Z,1000.01
2017-07-03T01:42:45.749Z,1000
2017-07-03T01:43:56.122Z,1000.04
2017-07-03T01:45:06.464Z,1000.05
2017-07-03T01:46:16.829Z,1000.04
2017-07-03T01:47:26.866Z,1000.03
2017-07-03T01:48:37.264Z,1000.04
2017-07-03T01:49:47.629Z,1000.04
2017-07-03T01:50:57.978Z,1000.1
2017-07-03T01:52:07.705Z,1000
2017-07-03T01:53:18.040Z,1000.05
2017-07-03T01:54:28.395Z,1000.07
2017-07-03T01:55:38.433Z,1000.05
2017-07-03T01:56:48.772Z,1000.04
2017-07-03T01:57:59.117Z,1000.08
2017-07-03T01:59:09.154Z,1000.02
2017-07-03T02:00:19.240Z,1000.04
2017-07-03T02:01:29.573Z,1000.12
2017-07-03T02:02:39.631Z,1000.08
2017-07-03T02:03:49.977Z,1000.07
2017-07-03T02:05:00.033Z,1000.1
2017-07-03T02:06:10.395Z,1000.08
2017-07-03T02:07:20.731Z,1000.1
2017-07-03T02:08:30.454Z,1000.07
2017-07-03T02:09:40.485Z,1000.03
2017-07-03T02:10:50.846Z,1000.03
2017-07-03T02:12:01.185Z,1000.06
2017-07-03T02:13:11.539Z,1000.1
2017-07-03T02:14:21.899Z,1000.08
2017-07-03T02:15:32.269Z,1000.08
2017-07-03T02:16:42.626Z,1000.1
2017-07-03T02:17:52.978Z,1000.11
2017-07-03T02:19:03.365Z,1000.08
2017-07-03T02:20:13.727Z,1000.08
2017-07-03T02:21:24.077Z,1000.06
2017-07-03T02:22:34.411Z,1000.08
2017-07-03T02:23:44.811Z,1000.07
2017-07-03T02:24:54.849Z,1000.04
2017-07-03T02:26:05.196Z,1000.06
2017-07-03T02:27:15.527Z,1000.02
2017-07-03T02:28:25.580Z,1000.05
2017-07-03T02:29:36.003Z,1000.02
2017-07-03T02:30:46.353Z,1000.08
2017-07-03T02:31:56.709Z,1000.09
2017-07-03T02:33:06.737Z,1000.11
2017-07-03T02:34:17.137Z,1000.12
2017-07-03T02:35:27.190Z,1000.13
2017-07-03T02:36:37.222Z,1000.15
2017-07-03T02:37:47.564Z,1000.16
2017-07-03T02:38:57.924Z,1000.15
2017-07-03T02:40:08.262Z,1000.16
2017-07-03T02:41:18.622Z,1000.15
2017-07-03T02:42:28.964Z,1000.16
2017-07-03T02:43:39.333Z,1000.21
2017-07-03T02:44:49.687Z,1000.17
2017-07-03T02:46:00.037Z,1000.23
2017-07-03T02:47:10.142Z,1000.22
2017-07-03T02:48:20.176Z,1000.23
2017-07-03T02:49:30.531Z,1000.23
2017-07-03T02:50:40.902Z,1000.31
2017-07-03T02:51:51.002Z,1000.28
2017-07-03T02:53:01.365Z,1000.28
2017-07-03T02:54:11.397Z,1000.29
2017-07-03T02:55:21.742Z,1000.31
2017-07-03T02:56:32.089Z,1000.29
2017-07-03T02:57:42.128Z,1000.33
2017-07-03T02:58:52.472Z,1000.32
2017-07-03T03:00:02.827Z,1000.31
2017-07-03T03:01:12.558Z,1000.32
2017-07-03T03:33:08.921Z,1000.57
2017-07-03T03:34:18.965Z,1000.59
2017-07-03T03:35:29.291Z,1000.63
2017-07-03T03:36:39.646Z,1000.68
2017-07-03T03:37:49.989Z,1000.66
2017-07-03T03:39:00.337Z,1000.75
2017-07-03T03:40:10.372Z,1000.76
2017-07-03T03:41:20.397Z,1000.8
2017-07-03T03:42:30.731Z,1000.86
2017-07-03T03:43:41.086Z,1000.83
2017-07-03T03:44:51.419Z,1000.86
2017-07-03T03:46:01.781Z,1000.84
2017-07-03T03:47:12.129Z,1000.88
2017-07-03T03:48:22.500Z,1000.85
2017-07-03T03:49:32.864Z,1000.9
2017-07-03T03:50:42.897Z,1000.85
2017-07-03T03:51:52.934Z,1000.89
2017-07-03T03:53:03.283Z,1000.95
2017-07-03T03:54:13.317Z,1000.92
2017-07-03T03:55:23.679Z,1000.97
2017-07-03T03:56:34.018Z,1000.99
2017-07-03T03:57:44.393Z,1001.03
2017-07-03T03:58:54.741Z,1000.95
2017-07-03T04:00:05.107Z,1000.98
2017-07-03T04:01:15.472Z,1000.9
2017-07-03T04:02:25.877Z,1000.93
2017-07-03T04:03:36.227Z,1000.96
2017-07-03T04:04:46.574Z,1000.97
2017-07-03T04:05:56.604Z,1000.98
2017-07-03T04:07:06.952Z,1001.03
2017-07-03T04:08:17.046Z,1001.02
2017-07-03T04:09:27.085Z,1001.06
2017-07-03T04:10:37.446Z,1001.13
2017-07-03T04:11:47.491Z,1001.2
2017-07-03T04:12:57.517Z,1001.23
2017-07-03T04:14:07.931Z,1001.23
2017-07-03T04:15:18.280Z,1001.22
2017-07-03T04:16:28.641Z,1001.28
2017-07-03T04:17:38.679Z,1001.28
2017-07-03T04:18:49.023Z,1001.32
2017-07-03T04:19:59.370Z,1001.35
2017-07-03T04:21:09.727Z,1001.33
2017-07-03T04:22:20.075Z,1001.3
2017-07-03T04:23:30.422Z,1001.33
2017-07-03T04:24:40.765Z,1001.32
2017-07-03T04:25:51.117Z,1001.34
2017-07-03T04:27:01.473Z,1001.38
2017-07-03T04:28:11.499Z,1001.42
2017-07-03T04:29:21.860Z,1001.44
2017-07-03T04:30:32.212Z,1001.49
2017-07-03T04:31:42.236Z,1001.42
2017-07-03T04:32:52.266Z,1001.47
2017-07-03T04:34:02.619Z,1001.46
2017-07-03T04:35:12.652Z,1001.46
2017-07-03T04:36:23.004Z,1001.45
2017-07-03T04:37:33.048Z,1001.5
2017-07-03T04:38:42.781Z,1001.49
2017-07-03T04:39:53.163Z,1001.52
2017-07-03T04:41:02.886Z,1001.51
2017-07-03T04:42:13.242Z,1001.56
2017-07-03T04:43:23.601Z,1001.53
2017-07-03T04:44:33.939Z,1001.55
2017-07-03T04:45:43.729Z,1001.55
2017-07-03T04:46:53.759Z,1001.54
2017-07-03T04:48:03.796Z,1001.5
2017-07-03T04:49:13.508Z,1001.51
2017-07-03T04:50:23.856Z,1001.52
2017-07-03T04:51:34.262Z,1001.55
2017-07-03T04:52:44.626Z,1001.53
2017-07-03T04:53:54.672Z,1001.57
2017-07-03T04:55:05.040Z,1001.54
2017-07-03T04:56:15.067Z,1001.54
2017-07-03T04:57:25.457Z,1001.54
2017-07-03T04:58:35.802Z,1001.6
2017-07-03T04:59:45.832Z,1001.61
2017-07-03T05:00:56.193Z,1001.55
2017-07-03T05:02:06.245Z,1001.56
2017-07-03T05:03:16.584Z,1001.65
2017-07-03T05:04:26.770Z,1001.64
2017-07-03T05:05:37.106Z,1001.64
2017-07-03T05:06:47.442Z,1001.65
2017-07-03T05:07:57.791Z,1001.63
2017-07-03T05:09:08.142Z,1001.64
2017-07-03T05:10:18.504Z,1001.71
2017-07-03T05:11:28.570Z,1001.74
2017-07-03T05:12:38.672Z,1001.76
2017-07-03T05:13:48.714Z,1001.83
2017-07-03T05:14:58.800Z,1001.86
2017-07-03T05:16:08.867Z,1001.9
2017-07-03T05:17:19.228Z,1001.9
2017-07-03T05:18:29.265Z,1001.93
2017-07-03T05:19:39.597Z,1001.96
2017-07-03T05:20:50.007Z,1001.98
2017-07-03T05:21:59.726Z,1002.02
2017-07-03T05:23:10.067Z,1002.02
2017-07-03T05:24:20.100Z,1002.01
2017-07-03T05:25:29.827Z,1001.95
2017-07-03T05:26:40.164Z,1001.92
2017-07-03T05:27:50.195Z,1001.99
2017-07-03T05:29:00.532Z,1002.01
2017-07-03T05:30:09.935Z,1002.02
2017-07-03T05:31:19.976Z,1002.01
2017-07-03T05:32:30.335Z,1002.04
2017-07-03T05:33:40.669Z,1002.24
2017-07-03T05:34:51.032Z,1002.22
2017-07-03T05:36:01.401Z,1002.04
2017-07-03T05:37:11.430Z,1001.99
2017-07-03T05:38:21.828Z,1002
2017-07-03T05:39:32.186Z,1001.94
2017-07-03T05:40:42.534Z,1001.96
2017-07-03T05:41:52.876Z,1001.99
2017-07-03T05:43:03.233Z,1002.06
2017-07-03T05:44:13.619Z,1002.1
2017-07-03T05:45:23.962Z,1002.25
2017-07-03T05:46:33.987Z,1002.26
2017-07-03T05:47:44.341Z,1002.24
2017-07-03T05:48:54.686Z,1002.54
2017-07-03T05:50:05.030Z,1002.45
2017-07-03T05:51:15.372Z,1002.68
2017-07-03T05:52:25.422Z,1002.74
2017-07-03T05:53:35.456Z,1002.72
2017-07-03T05:54:45.800Z,1002.76
2017-07-03T05:55:56.158Z,1002.35
2017-07-03T05:57:06.196Z,1002.24
2017-07-03T05:58:16.261Z,1002.23
2017-07-03T05:59:26.605Z,1002.26
2017-07-03T06:00:36.644Z,1002.26
2017-07-03T06:01:47.046Z,1002.22
2017-07-03T06:02:57.394Z,1002.24
2017-07-03T06:04:07.756Z,1002.27
2017-07-03T06:05:18.107Z,1002.45
2017-07-03T06:06:28.456Z,1002.7
2017-07-03T06:07:38.814Z,1002.54
2017-07-03T06:08:49.188Z,1002.34
2017-07-03T06:09:59.539Z,1002.29
2017-07-03T06:11:09.560Z,1002.33
2017-07-03T06:12:19.604Z,1002.61
2017-07-03T06:13:29.998Z,1002.45
2017-07-03T06:14:40.367Z,1002.41
2017-07-03T06:15:50.407Z,1002.52
2017-07-03T06:17:00.754Z,1002.43
2017-07-03T06:18:10.799Z,1002.59
2017-07-03T06:19:21.143Z,1002.51
2017-07-03T06:20:30.876Z,1002.41
2017-07-03T06:21:40.900Z,1002.43
2017-07-03T06:22:50.952Z,1002.48
2017-07-03T06:24:01.291Z,1002.33
2017-07-03T06:25:11.700Z,1002.37
2017-07-03T06:26:22.050Z,1002.36
2017-07-03T06:27:32.130Z,1002.39
2017-07-03T06:28:42.168Z,1002.4
2017-07-03T06:29:52.524Z,1002.49
2017-07-03T06:31:02.605Z,1002.46
2017-07-03T06:32:12.952Z,1002.5
2017-07-03T06:33:22.995Z,1002.48
2017-07-03T06:34:33.341Z,1002.49
2017-07-03T06:35:43.389Z,1002.51
2017-07-03T06:36:53.744Z,1002.55
2017-07-03T06:38:03.772Z,1002.56
2017-07-03T06:39:14.119Z,1002.54
2017-07-03T06:40:24.465Z,1002.6
2017-07-03T06:41:34.542Z,1002.55
2017-07-03T06:42:44.634Z,1002.63
2017-07-03T06:43:54.984Z,1002.63
2017-07-03T06:45:05.025Z,1002.64
2017-07-03T06:46:15.424Z,1002.59
2017-07-03T06:47:25.812Z,1002.62
2017-07-03T06:48:35.859Z,1002.59
2017-07-03T06:49:46.233Z,1002.62
2017-07-03T06:50:56.280Z,1002.6
2017-07-03T06:52:06.627Z,1002.59
2017-07-03T06:53:16.972Z,1002.57
2017-07-03T06:54:27.373Z,1002.72
2017-07-03T06:55:37.716Z,1002.83
2017-07-03T06:56:47.748Z,1002.67
2017-07-03T06:57:58.103Z,1002.57
2017-07-03T06:59:08.454Z,1002.57
2017-07-03T07:00:18.800Z,1002.62
2017-07-03T07:01:29.149Z,1002.61
2017-07-03T07:02:39.489Z,1002.59
2017-07-03T07:03:49.834Z,1002.59
2017-07-03T07:05:00.181Z,1002.63
2017-07-03T07:06:10.543Z,1002.59
2017-07-03T07:07:20.892Z,1002.59
2017-07-03T07:08:31.235Z,1002.65
2017-07-03T07:09:41.278Z,1002.65
2017-07-03T07:10:51.638Z,1002.68
2017-07-03T07:12:02.050Z,1002.59
2017-07-03T07:13:12.086Z,1002.61
2017-07-03T07:14:22.444Z,1002.62
2017-07-03T07:15:32.792Z,1002.67
2017-07-03T07:16:43.145Z,1002.69
2017-07-03T07:17:53.550Z,1002.65
2017-07-03T07:19:03.275Z,1002.63
2017-07-03T07:20:13.328Z,1002.69
2017-07-03T07:21:23.666Z,1002.7
2017-07-03T07:22:33.710Z,1002.69
2017-07-03T07:23:43.754Z,1002.76
2017-07-03T07:24:53.809Z,1002.79
2017-07-03T07:26:04.230Z,1002.82
2017-07-03T07:27:13.971Z,1002.78
2017-07-03T07:28:24.323Z,1002.74
2017-07-03T07:29:34.739Z,1002.81
2017-07-03T07:30:44.472Z,1002.77
2017-07-03T07:31:54.816Z,1002.82
2017-07-03T07:33:04.845Z,1002.75
2017-07-03T07:34:15.203Z,1002.76
2017-07-03T07:35:25.612Z,1002.83
2017-07-03T07:36:35.693Z,1002.81
2017-07-03T07:37:45.731Z,1002.82
2017-07-03T07:38:56.100Z,1003
2017-07-03T07:40:06.454Z,1002.8
2017-07-03T07:41:16.867Z,1002.87
2017-07-03T07:42:26.912Z,1002.91
2017-07-03T07:43:37.268Z,1002.92
2017-07-03T07:44:47.323Z,1002.79
2017-07-03T07:45:57.068Z,1002.87
2017-07-03T07:47:07.481Z,1002.86
2017-07-03T07:48:17.511Z,1002.88
2017-07-03T07:49:27.567Z,1002.89
2017-07-03T07:50:37.926Z,1002.82
2017-07-03T07:51:47.645Z,1002.79
2017-07-03T07:52:57.692Z,1002.8
2017-07-03T07:54:08.050Z,1002.79
2017-07-03T07:55:18.410Z,1002.79
2017-07-03T07:56:28.463Z,1002.82
2017-07-03T07:57:38.826Z,1002.91
2017-07-03T07:58:49.230Z,1002.86
2017-07-03T07:59:59.597Z,1002.88
2017-07-03T08:01:09.646Z,1002.9
2017-07-03T08:02:20.003Z,1002.95
2017-07-03T08:03:30.356Z,1002.83
2017-07-03T08:04:40.767Z,1002.86
2017-07-03T08:05:51.127Z,1002.94
2017-07-03T08:07:01.479Z,1002.86
2017-07-03T08:08:11.912Z,1002.81
2017-07-03T08:09:22.268Z,1002.84
2017-07-03T08:10:32.711Z,1002.86
2017-07-03T08:11:43.112Z,1002.83
2017-07-03T08:12:53.154Z,1002.91
2017-07-03T08:14:03.501Z,1002.85
2017-07-03T08:15:13.282Z,1002.86
2017-07-03T08:16:23.701Z,1002.78
2017-07-03T08:17:33.458Z,1002.82
2017-07-03T08:18:43.839Z,1002.85
2017-07-03T08:19:54.214Z,1002.9
2017-07-03T08:21:04.578Z,1002.8
2017-07-03T08:22:14.948Z,1002.81
2017-07-03T08:23:24.696Z,1002.78
2017-07-03T08:24:35.270Z,1002.73
2017-07-03T08:25:45.967Z,1002.69
2017-07-03T08:26:56.338Z,1002.83
2017-07-03T08:28:06.406Z,1002.72
2017-07-03T08:29:16.778Z,1002.78
2017-07-03T08:30:26.816Z,1002.72
2017-07-03T08:31:36.551Z,1002.67
2017-07-03T08:32:46.978Z,1002.73
2017-07-03T08:33:57.425Z,1002.66
2017-07-03T08:35:07.526Z,1002.89
2017-07-03T08:36:17.963Z,1002.8
2017-07-03T08:37:28.371Z,1002.64
2017-07-03T08:38:38.786Z,1002.7
2017-07-03T08:39:48.929Z,1002.76
2017-07-03T08:40:59.318Z,1002.79
2017-07-03T08:42:09.703Z,1002.65
2017-07-03T08:43:20.098Z,1002.73
2017-07-03T08:44:30.493Z,1002.71
2017-07-03T08:45:40.943Z,1002.76
2017-07-03T08:46:51.349Z,1002.72
2017-07-03T08:48:01.784Z,1002.7
2017-07-03T08:49:12.191Z,1002.66
2017-07-03T08:50:22.586Z,1002.66
2017-07-03T08:51:33.097Z,1002.74
2017-07-03T08:52:43.498Z,1002.63
2017-07-03T08:53:53.579Z,1002.65
2017-07-03T08:55:03.988Z,1002.66
2017-07-03T08:56:14.350Z,1002.71
2017-07-03T08:57:24.775Z,1002.65
2017-07-03T08:58:35.151Z,1002.6
2017-07-03T08:59:45.216Z,1002.59
2017-07-03T09:00:55.592Z,1002.67
2017-07-03T09:02:05.975Z,1002.56
2017-07-03T09:03:16.091Z,1002.57
2017-07-03T09:04:26.507Z,1002.51
2017-07-03T09:05:36.878Z,1002.53
2017-07-03T09:06:46.922Z,1002.52
2017-07-03T09:07:57.311Z,1002.68
2017-07-03T09:09:07.741Z,1002.51
2017-07-03T09:10:17.803Z,1002.47
2017-07-03T09:11:28.170Z,1002.6
2017-07-03T09:12:38.576Z,1002.54
2017-07-03T09:13:48.672Z,1002.44
2017-07-03T09:14:59.125Z,1002.49
2017-07-03T09:16:09.175Z,1002.48
2017-07-03T09:17:19.559Z,1002.49
2017-07-03T09:18:29.610Z,1002.44
2017-07-03T09:19:39.707Z,1002.43
2017-07-03T09:20:49.124Z,1002.32
2017-07-03T09:21:59.513Z,1002.24
2017-07-03T09:23:09.895Z,1002.27
2017-07-03T09:24:19.942Z,1002.21
2017-07-03T09:25:30.010Z,1002.36
2017-07-03T09:26:40.422Z,1002.17
2017-07-03T09:27:50.790Z,1002.14
2017-07-03T09:29:01.144Z,1002.29
2017-07-03T09:30:11.592Z,1002.19
2017-07-03T09:31:21.997Z,1002.22
2017-07-03T09:32:32.467Z,1002.2
2017-07-03T09:33:42.584Z,1002.21
2017-07-03T09:34:52.951Z,1002.17
2017-07-03T09:36:03.322Z,1002.3
2017-07-03T09:37:13.668Z,1002.22
2017-07-03T09:38:24.108Z,1002.16
2017-07-03T09:39:34.157Z,1002.21
2017-07-03T09:40:44.270Z,1002.14
2017-07-03T09:41:54.644Z,1002.13
2017-07-03T09:43:05.043Z,1002.12
2017-07-03T09:44:15.469Z,1002.11
2017-07-03T09:45:25.876Z,1002.15
2017-07-03T09:46:35.943Z,1002.12
2017-07-03T09:47:46.328Z,1002.06
2017-07-03T09:48:56.394Z,1002.12
2017-07-03T09:50:06.535Z,1002.07
2017-07-03T09:51:16.606Z,1002.07
2017-07-03T09:52:26.681Z,1002.07
2017-07-03T09:53:36.791Z,1002.15
2017-07-03T09:54:47.212Z,1002.18
2017-07-03T09:55:57.635Z,1002.09
2017-07-03T09:57:08.007Z,1002.11
2017-07-03T09:58:18.403Z,1002.19
2017-07-03T09:59:28.847Z,1002.06
2017-07-03T10:00:39.265Z,1002.16
2017-07-03T10:01:49.338Z,1002.16
2017-07-03T10:02:59.710Z,1002.1
2017-07-03T10:04:10.090Z,1002.1
2017-07-03T10:05:20.474Z,1002.1
2017-07-03T10:06:30.853Z,1002.15
2017-07-03T10:07:40.979Z,1002.1
2017-07-03T10:08:51.325Z,1002.12
2017-07-03T10:10:01.709Z,1002.1
2017-07-03T10:11:12.094Z,1002.11
2017-07-03T10:12:22.150Z,1002.16
2017-07-03T10:13:32.568Z,1002.07
2017-07-03T10:14:42.955Z,1002.08
2017-07-03T10:15:53.323Z,1002.06
2017-07-03T10:17:03.682Z,1002.09
2017-07-03T10:18:13.448Z,1002.1
2017-07-03T10:19:23.878Z,1002.05
2017-07-03T10:20:34.282Z,1002.15
2017-07-03T10:21:44.655Z,1002.18
2017-07-03T10:22:55.054Z,1001.94
2017-07-03T10:24:05.449Z,1002.07
2017-07-03T10:25:15.908Z,1002.15
2017-07-03T10:26:26.285Z,1002.06
2017-07-03T10:27:36.374Z,1002.09
2017-07-03T10:28:46.738Z,1002.09
2017-07-03T10:29:57.111Z,1002.09
2017-07-03T10:31:07.471Z,1002.02
2017-07-03T10:32:17.829Z,1001.98
2017-07-03T10:33:28.217Z,1002
2017-07-03T10:34:38.593Z,1002.1
2017-07-03T10:35:48.980Z,1002.19
2017-07-03T10:36:59.345Z,1001.99
2017-07-03T10:38:09.728Z,1002.07
2017-07-03T10:39:20.134Z,1002.15
2017-07-03T10:40:30.216Z,1002.05
2017-07-03T10:41:40.278Z,1002.03
2017-07-03T10:42:50.399Z,1002.02
2017-07-03T10:44:00.812Z,1001.95
2017-07-03T10:45:11.201Z,1002.17
2017-07-03T10:46:21.266Z,1002.05
2017-07-03T10:47:31.693Z,1002.17
2017-07-03T10:48:41.804Z,1002.08
2017-07-03T10:49:52.195Z,1002.14
2017-07-03T10:51:02.591Z,1002.09
2017-07-03T10:52:12.954Z,1001.98
2017-07-03T10:53:23.332Z,1002.02
2017-07-03T10:54:33.441Z,1001.99
2017-07-03T10:55:43.839Z,1002.01
2017-07-03T10:56:54.291Z,1002.13
2017-07-03T10:58:04.658Z,1002.03
2017-07-03T10:59:15.043Z,1002.13
2017-07-03T11:00:25.434Z,1002.12
2017-07-03T11:01:35.814Z,1002.08
2017-07-03T11:02:46.236Z,1002.13
2017-07-03T11:03:56.616Z,1002.18
2017-07-03T11:05:06.981Z,1002.08
2017-07-03T11:06:17.410Z,1002.21
2017-07-03T11:07:27.839Z,1002.26
2017-07-03T11:08:37.927Z,1002.22
2017-07-03T11:09:48.304Z,1002.18
2017-07-03T11:10:58.368Z,1002.21
2017-07-03T11:12:08.155Z,1002.14
2017-07-03T11:13:18.241Z,1002.05
2017-07-03T11:14:28.625Z,1002.22
2017-07-03T11:15:38.719Z,1002.11
2017-07-03T11:16:49.113Z,1002.15
2017-07-03T11:17:59.524Z,1002.18
2017-07-03T11:19:09.900Z,1002.18
2017-07-03T11:20:20.276Z,1002.11
2017-07-03T11:21:30.661Z,1002.2
2017-07-03T11:22:41.019Z,1002.16
2017-07-03T11:23:51.447Z,1002.17
2017-07-03T11:25:01.827Z,1002.15
2017-07-03T11:26:11.900Z,1002.24
2017-07-03T11:27:21.974Z,1002.16
2017-07-03T11:28:32.341Z,1002.23
2017-07-03T11:29:42.715Z,1002.2
2017-07-03T11:30:53.111Z,1002.25
2017-07-03T11:32:03.172Z,1002.22
2017-07-03T11:33:13.550Z,1002.13
2017-07-03T11:34:23.927Z,1002
2017-07-03T11:35:34.034Z,1002.06
2017-07-03T11:36:44.088Z,1002.16
2017-07-03T11:37:54.445Z,1002.03
2017-07-03T11:39:04.847Z,1002.06
2017-07-03T11:40:15.226Z,1002.06
2017-07-03T11:41:25.664Z,1001.97
2017-07-03T11:42:36.034Z,1002.11
2017-07-03T11:43:46.450Z,1002.04
2017-07-03T11:44:56.839Z,1002.06
2017-07-03T11:46:06.895Z,1002.04
2017-07-03T11:47:17.350Z,1002.05
2017-07-03T11:48:27.727Z,1002.14
2017-07-03T11:49:37.811Z,1002.03
2017-07-03T11:50:47.890Z,1002.05
2017-07-03T11:51:58.339Z,1002.04
2017-07-03T11:53:08.766Z,1002.15
2017-07-03T11:54:18.807Z,1002.14
2017-07-03T11:55:29.200Z,1002.06
2017-07-03T11:56:39.596Z,1002.12
2017-07-03T11:57:49.986Z,1002.02
2017-07-03T11:59:00.664Z,1002.09
2017-07-03T12:00:11.065Z,1002.15
2017-07-03T12:01:21.476Z,1002.12
2017-07-03T12:02:31.870Z,1002.05
2017-07-03T12:03:42.244Z,1002.05
2017-07-03T12:04:52.142Z,1002.02
2017-07-03T12:06:02.509Z,1001.87
2017-07-03T12:07:12.894Z,1001.95
2017-07-03T12:08:22.956Z,1001.97
2017-07-03T12:09:33.336Z,1001.99
2017-07-03T12:10:43.454Z,1001.9
2017-07-03T12:11:53.824Z,1001.9
2017-07-03T12:13:04.194Z,1001.98
2017-07-03T12:14:14.569Z,1001.88
2017-07-03T12:15:24.950Z,1001.91
2017-07-03T12:16:35.451Z,1001.87
2017-07-03T12:17:45.866Z,1001.85
2017-07-03T12:18:55.931Z,1001.78
2017-07-03T12:20:06.326Z,1001.88
2017-07-03T12:21:16.792Z,1001.88
2017-07-03T12:22:27.221Z,1001.81
2017-07-03T12:23:37.618Z,1001.74
2017-07-03T12:24:47.984Z,1001.78
2017-07-03T12:25:58.380Z,1001.79
2017-07-03T12:27:08.445Z,1001.78
2017-07-03T12:28:18.584Z,1001.89
2017-07-03T12:29:28.981Z,1001.7
2017-07-03T12:30:39.354Z,1001.78
2017-07-03T12:31:49.743Z,1001.85
2017-07-03T12:33:00.141Z,1001.89
2017-07-03T12:34:10.535Z,1001.71
2017-07-03T12:35:20.632Z,1001.69
2017-07-03T12:36:30.711Z,1001.79
2017-07-03T12:37:40.460Z,1001.68
2017-07-03T12:38:50.841Z,1001.7
2017-07-03T12:40:00.936Z,1001.81
2017-07-03T12:41:11.321Z,1001.72
2017-07-03T12:42:21.392Z,1001.74
2017-07-03T12:43:31.752Z,1001.65
2017-07-03T12:44:41.813Z,1001.58
2017-07-03T12:45:52.279Z,1001.53
2017-07-03T12:47:02.670Z,1001.53
2017-07-03T12:48:13.094Z,1001.5
2017-07-03T12:49:23.168Z,1001.56
2017-07-03T12:50:33.547Z,1001.48
2017-07-03T12:51:43.952Z,1001.5
2017-07-03T12:52:54.342Z,1001.48
2017-07-03T12:54:04.746Z,1001.5
2017-07-03T12:55:15.134Z,1001.53
2017-07-03T12:56:25.538Z,1001.5
2017-07-03T12:57:35.986Z,1001.38
2017-07-03T12:58:46.403Z,1001.52
2017-07-03T12:59:56.150Z,1001.5
2017-07-03T13:01:06.527Z,1001.46
2017-07-03T13:02:16.925Z,1001.55
2017-07-03T13:03:27.275Z,1001.56
2017-07-03T13:04:38.139Z,1001.54
2017-07-03T13:05:48.555Z,1001.48
2017-07-03T13:06:58.619Z,1001.52
2017-07-03T13:08:08.700Z,1001.46
2017-07-03T13:09:19.244Z,1001.52
2017-07-03T13:10:29.620Z,1001.53
2017-07-03T13:11:39.714Z,1001.58
2017-07-03T13:12:49.775Z,1001.4
2017-07-03T13:13:59.846Z,1001.41
2017-07-03T13:15:10.259Z,1001.4
2017-07-03T13:16:20.641Z,1001.42
2017-07-03T13:17:30.691Z,1001.31
2017-07-03T13:18:41.056Z,1001.4
2017-07-03T13:19:51.470Z,1001.41
2017-07-03T13:21:01.948Z,1001.44
2017-07-03T13:22:12.312Z,1001.47
2017-07-03T13:23:22.722Z,1001.46
2017-07-03T13:24:33.111Z,1001.34
2017-07-03T13:25:43.507Z,1001.31
2017-07-03T13:26:53.966Z,1001.4
2017-07-03T13:28:04.033Z,1001.35
2017-07-03T13:29:14.093Z,1001.46
2017-07-03T13:30:24.437Z,1001.31
2017-07-03T13:31:34.184Z,1001.27
2017-07-03T13:32:44.759Z,1001.31
2017-07-03T13:33:55.125Z,1001.36
2017-07-03T13:35:05.536Z,1001.29
2017-07-03T13:36:15.595Z,1001.22
2017-07-03T13:37:25.655Z,1001.25
2017-07-03T13:38:36.067Z,1001.26
2017-07-03T13:39:46.471Z,1001.26
2017-07-03T13:40:56.850Z,1001.3
2017-07-03T13:42:07.236Z,1001.32
2017-07-03T13:43:17.604Z,1001.38
2017-07-03T13:44:27.726Z,1001.43
2017-07-03T13:45:38.114Z,1001.36
2017-07-03T13:46:48.480Z,1001.34
2017-07-03T13:47:58.866Z,1001.31
2017-07-03T13:49:08.911Z,1001.3
2017-07-03T13:50:19.459Z,1001.32
2017-07-03T13:51:29.853Z,1001.28
2017-07-03T13:52:39.935Z,1001.36
2017-07-03T13:53:50.304Z,1001.32
2017-07-03T13:55:00.437Z,1001.19
2017-07-03T13:56:10.575Z,1001.24
2017-07-03T13:57:20.963Z,1001.16
2017-07-03T13:58:31.065Z,1001.28
2017-07-03T13:59:41.438Z,1001.21
2017-07-03T14:00:51.807Z,1001.29
2017-07-03T14:02:02.373Z,1001.22
2017-07-03T14:03:12.836Z,1001.21
2017-07-03T14:04:23.304Z,1001.11
2017-07-03T14:05:33.697Z,1001.1
2017-07-03T14:06:44.057Z,1001.19
2017-07-03T14:07:54.151Z,1001.14
2017-07-03T14:09:04.523Z,1001.14
2017-07-03T14:10:15.015Z,1001.17
2017-07-03T14:11:25.077Z,1001.22
2017-07-03T14:12:35.128Z,1001.18
2017-07-03T14:13:45.555Z,1001.13
2017-07-03T14:14:55.935Z,1001.26
2017-07-03T14:16:06.013Z,1001.14
2017-07-03T14:17:16.191Z,1001.19
2017-07-03T14:18:26.558Z,1001.21
2017-07-03T14:19:37.007Z,1001.11
2017-07-03T14:20:47.065Z,1001.15
2017-07-03T14:21:57.491Z,1000.96
2017-07-03T14:23:07.550Z,1001.24
2017-07-03T14:24:17.599Z,1001.12
2017-07-03T14:25:27.724Z,1001.14
2017-07-03T14:26:38.082Z,1001.06
2017-07-03T14:27:48.464Z,1001.11
2017-07-03T14:28:58.534Z,1001.11
2017-07-03T14:30:08.908Z,1001.15
2017-07-03T14:31:19.079Z,1001.12
2017-07-03T14:32:29.168Z,1001.07
2017-07-03T14:33:39.527Z,1001.11
2017-07-03T14:34:49.609Z,1001.06
2017-07-03T14:35:59.666Z,1001.05
2017-07-03T14:37:10.071Z,1001.02
2017-07-03T14:38:20.477Z,1001.02
2017-07-03T14:39:30.862Z,1000.99
2017-07-03T14:40:41.251Z,1001.15
2017-07-03T14:41:51.638Z,1001.01
2017-07-03T14:43:01.741Z,1001.03
2017-07-03T14:44:11.819Z,1000.94
2017-07-03T14:45:22.208Z,1001.02
2017-07-03T14:46:32.263Z,1000.93